< < Back
Terminal Aerodrome Forecast


Current Version              Previous Versions:   1  2  3  4  5  6  7  8  9  

Terminal Aerodrome Forecast

020
FTUS44 KBMX 191000 AAA
TAFTCL
TAF AMD
KTCL 191040Z 1911/2006 00000KT P6SM SCT025 OVC050
      TEMPO 1911/1913 4SM BR
     FM191400 01008G16KT P6SM SCT060
     FM200000 02003KT P6SM SCT050=



Latest METAR

574
SAUS70 KWBC 191700 RRD
MTRTCL
METAR KTCL 191653Z 01010G20KT 10SM CLR 24/08 A3013 RMK AO2 SLP200
T02390083


USA.gov is the U.S. government's official web portal to all federal, state and local government web resources and services.